Time;durP1;ratioP1;P1;durP2;ratioP2;P2;SDS_P1;SDS_P2;PMS_P1;PMS_P2;Temp;Humidity;BMP_temperature;BMP_pressure;BME280_temperature;BME280_humidity;BME280_pressure;Samples;Min_cycle;Max_cycle;Signal;HPM_P1;HPM_P2
2023/01/20 04:00:32;;;;;;;1.42;0.90;;;14.00;50.30;;;;;;5874684;23;45852;-58
2023/01/20 04:02:59;;;;;;;1.13;0.90;;;14.00;50.30;;;;;;4906254;23;45975;-62
2023/01/20 04:05:25;;;;;;;0.90;0.80;;;14.00;50.30;;;;;;4912778;28;44863;-59
2023/01/20 04:07:50;;;;;;;1.45;1.08;;;14.00;50.30;;;;;;4945485;28;44890;-52
2023/01/20 04:10:16;;;;;;;1.23;1.00;;;13.90;50.30;;;;;;4899947;28;45590;-59
2023/01/20 04:12:42;;;;;;;1.75;0.82;;;13.90;50.30;;;;;;4920775;28;46838;-56
2023/01/20 04:15:07;;;;;;;0.90;0.80;;;14.00;50.30;;;;;;4920964;28;45342;-55
2023/01/20 04:17:33;;;;;;;1.05;0.93;;;14.00;50.40;;;;;;4932090;28;45207;-54
2023/01/20 04:20:02;;;;;;;1.00;0.90;;;13.90;50.30;;;;;;4918473;28;45566;-57
2023/01/20 04:22:37;;;;;;;1.08;0.95;;;13.90;50.30;;;;;;4918030;28;45717;-54
2023/01/20 04:25:26;;;;;;;1.42;0.90;;;13.90;50.30;;;;;;4930442;28;45233;-54
2023/01/20 04:27:51;;;;;;;1.20;0.90;;;13.90;50.30;;;;;;4949647;28;45514;-55
2023/01/20 04:30:17;;;;;;;1.33;1.05;;;13.90;50.30;;;;;;4931755;28;45362;-57
2023/01/20 04:32:42;;;;;;;1.30;0.90;;;13.90;50.30;;;;;;4949439;28;45498;-52
2023/01/20 04:35:15;;;;;;;1.33;1.23;;;13.90;50.30;;;;;;4950390;28;45202;-56
2023/01/20 04:37:41;;;;;;;;;;;13.90;50.30;;;;;;4946915;28;45530;-53
2023/01/20 04:40:07;;;;;;;0.80;0.80;;;13.90;50.50;;;;;;4949146;28;45255;-54
2023/01/20 04:42:33;;;;;;;1.13;0.80;;;13.80;50.30;;;;;;4933296;28;46397;-54
2023/01/20 04:44:58;;;;;;;1.65;0.70;;;13.90;50.40;;;;;;4951182;28;45143;-50
2023/01/20 04:47:24;;;;;;;1.10;0.90;;;13.80;50.30;;;;;;4949047;28;45715;-54
2023/01/20 04:49:49;;;;;;;0.85;0.80;;;13.80;50.30;;;;;;4931434;28;45035;-54
2023/01/20 04:52:15;;;;;;;0.95;0.90;;;13.80;50.40;;;;;;4948871;28;46744;-53
2023/01/20 04:54:41;;;;;;;1.00;0.88;;;13.90;50.40;;;;;;4948989;28;45553;-55
2023/01/20 04:57:06;;;;;;;1.52;1.13;;;13.80;50.30;;;;;;4948726;28;45392;-54
2023/01/20 04:59:32;;;;;;;1.52;1.33;;;13.80;50.40;;;;;;4951481;28;45450;-52
2023/01/20 05:01:57;;;;;;;1.70;1.23;;;13.80;50.40;;;;;;4945647;28;46025;-55
2023/01/20 05:04:23;;;;;;;1.80;1.23;;;13.80;50.40;;;;;;4926852;28;45067;-52
2023/01/20 05:06:48;;;;;;;1.20;1.10;;;13.80;50.40;;;;;;4946453;28;45472;-54
2023/01/20 05:09:14;;;;;;;1.10;0.90;;;13.80;50.40;;;;;;4951446;28;45525;-56
2023/01/20 05:11:41;;;;;;;1.63;0.85;;;13.80;50.40;;;;;;4928953;28;45271;-54
2023/01/20 05:14:06;;;;;;;1.33;1.23;;;13.70;50.40;;;;;;4947609;28;45118;-52
2023/01/20 05:16:33;;;;;;;1.90;1.42;;;13.80;50.40;;;;;;4947041;28;45166;-56
2023/01/20 05:18:59;;;;;;;1.45;1.10;;;13.70;50.40;;;;;;4948418;28;44960;-54
2023/01/20 05:21:25;;;;;;;1.20;1.00;;;13.70;50.40;;;;;;4944836;28;46407;-53
2023/01/20 05:23:53;;;;;;;1.00;0.70;;;13.70;50.40;;;;;;4948801;28;45157;-56
2023/01/20 05:26:19;;;;;;;1.55;1.00;;;13.70;50.50;;;;;;4947316;28;45062;-54
2023/01/20 05:28:45;;;;;;;1.27;0.88;;;13.70;50.50;;;;;;4945222;28;45543;-57
2023/01/20 05:31:10;;;;;;;1.40;1.10;;;13.70;50.40;;;;;;4929601;28;45781;-54
2023/01/20 05:33:38;;;;;;;1.50;1.02;;;13.70;50.50;;;;;;4929814;28;45332;-54
2023/01/20 05:36:05;;;;;;;1.17;1.05;;;13.70;50.50;;;;;;4941384;28;45915;-55
2023/01/20 05:38:30;;;;;;;1.38;0.93;;;13.70;50.40;;;;;;4912186;28;44937;-54
2023/01/20 05:41:00;;;;;;;1.05;0.95;;;13.70;50.50;;;;;;4947975;28;45621;-56
2023/01/20 05:43:26;;;;;;;1.60;1.08;;;13.70;50.50;;;;;;4946288;28;45784;-57
2023/01/20 05:45:51;;;;;;;1.17;1.00;;;13.60;50.40;;;;;;4930324;28;45294;-51
2023/01/20 05:48:17;;;;;;;1.10;1.00;;;13.60;50.50;;;;;;4945294;28;44650;-56
2023/01/20 05:50:42;;;;;;;0.98;0.77;;;13.60;50.50;;;;;;4946524;28;46495;-53
2023/01/20 05:53:08;;;;;;;1.42;1.05;;;13.70;50.50;;;;;;4930936;28;45183;-57
2023/01/20 05:55:33;;;;;;;1.55;1.15;;;13.60;50.50;;;;;;4943967;28;45048;-54
2023/01/20 05:58:03;;;;;;;1.73;1.27;;;13.60;50.50;;;;;;4941489;28;44884;-53
2023/01/20 06:00:28;;;;;;;1.10;1.00;;;13.60;50.50;;;;;;4925979;28;46559;-55
2023/01/20 06:05:06;;;;;;;1.38;1.00;;;13.60;50.50;;;;;;5113077;27;45340;-50
2023/01/20 06:07:31;;;;;;;0.93;0.80;;;13.60;50.60;;;;;;5053526;27;45274;-51
2023/01/20 06:09:57;;;;;;;1.60;1.35;;;13.60;50.50;;;;;;5069581;27;44935;-56
2023/01/20 06:12:23;;;;;;;1.55;1.00;;;13.60;50.50;;;;;;5047263;27;46977;-54
2023/01/20 06:14:49;;;;;;;1.85;1.08;;;13.60;50.50;;;;;;5046931;27;47504;-55
2023/01/20 06:17:14;;;;;;;1.15;1.02;;;13.60;50.50;;;;;;5069624;27;45468;-56
2023/01/20 06:19:40;;;;;;;0.95;0.90;;;13.60;50.50;;;;;;5066641;27;45495;-52
2023/01/20 06:22:06;;;;;;;1.02;0.80;;;13.60;50.50;;;;;;5067536;27;44969;-52
2023/01/20 06:24:32;;;;;;;1.58;1.23;;;13.60;50.50;;;;;;5064737;27;45445;-53
2023/01/20 06:26:57;;;;;;;1.48;1.08;;;13.50;50.50;;;;;;5060685;27;45890;-50
2023/01/20 06:29:23;;;;;;;1.65;0.95;;;13.50;50.50;;;;;;5067402;27;45437;-53
2023/01/20 06:31:48;;;;;;;1.13;0.90;;;13.60;50.50;;;;;;5061704;27;45053;-52
2023/01/20 06:34:14;;;;;;;1.10;1.00;;;13.50;50.60;;;;;;5066144;27;45548;-52
2023/01/20 06:36:39;;;;;;;0.85;0.82;;;13.50;50.50;;;;;;5074900;27;45379;-55
2023/01/20 06:39:05;;;;;;;1.25;0.98;;;13.50;50.50;;;;;;5073235;27;45291;-54
2023/01/20 06:41:30;;;;;;;1.08;0.98;;;13.50;50.50;;;;;;5060783;27;45380;-53
2023/01/20 06:43:56;;;;;;;1.40;1.13;;;13.50;50.50;;;;;;5061665;27;45314;-52
2023/01/20 06:46:22;;;;;;;1.67;1.02;;;13.50;50.60;;;;;;5068355;27;45458;-53
2023/01/20 06:48:47;;;;;;;1.85;1.08;;;13.50;50.50;;;;;;5061816;27;45193;-54
2023/01/20 06:51:15;;;;;;;1.00;0.90;;;13.50;50.60;;;;;;5067690;27;45174;-51
2023/01/20 06:53:40;;;;;;;1.35;0.98;;;13.50;50.50;;;;;;5080015;27;46494;-54
2023/01/20 06:56:06;;;;;;;1.40;1.05;;;13.50;50.60;;;;;;5060298;27;45617;-56
2023/01/20 06:58:32;;;;;;;1.20;1.00;;;13.50;50.60;;;;;;5067766;27;45644;-53
2023/01/20 07:01:03;;;;;;;1.00;0.93;;;13.40;50.60;;;;;;5059331;27;44970;-52
2023/01/20 07:03:28;;;;;;;3.42;2.13;;;13.50;50.60;;;;;;5061484;27;46619;-57
2023/01/20 07:05:57;;;;;;;13.20;7.90;;;13.40;50.40;;;;;;5068661;27;45221;-62
2023/01/20 07:08:23;;;;;;;20.42;12.27;;;13.40;48.30;;;;;;5061649;27;45431;-60
2023/01/20 07:10:48;;;;;;;24.95;14.75;;;13.20;47.50;;;;;;5035134;27;45468;-63
2023/01/20 07:13:14;;;;;;;19.10;13.35;;;13.10;47.50;;;;;;5056496;27;45581;-63
2023/01/20 07:15:39;;;;;;;15.38;10.68;;;13.10;47.70;;;;;;5052819;27;44976;-63
2023/01/20 07:18:05;;;;;;;16.85;10.25;;;13.10;48.70;;;;;;5052456;28;45119;-62
2023/01/20 07:20:31;;;;;;;14.45;9.25;;;13.30;48.80;;;;;;5040126;28;45208;-62
2023/01/20 07:22:59;;;;;;;14.00;8.88;;;13.50;48.50;;;;;;5053707;28;45456;-61
2023/01/20 07:25:24;;;;;;;11.60;7.97;;;13.70;48.30;;;;;;5057844;28;45497;-59
2023/01/20 07:27:50;;;;;;;11.52;7.13;;;13.90;48.00;;;;;;5038814;28;45569;-61
2023/01/20 07:30:16;;;;;;;11.77;7.28;;;14.10;47.80;;;;;;5053427;28;45443;-62
2023/01/20 07:32:41;;;;;;;10.07;5.93;;;14.30;47.70;;;;;;5051496;28;47451;-63
2023/01/20 07:35:07;;;;;;;11.48;6.70;;;14.40;47.50;;;;;;5050894;28;46018;-60
2023/01/20 07:37:34;;;;;;;7.68;5.47;;;14.50;47.30;;;;;;5056302;28;45470;-61
2023/01/20 07:39:59;;;;;;;8.63;5.13;;;14.50;47.40;;;;;;5053637;28;45445;-61
2023/01/20 07:42:25;;;;;;;9.40;5.93;;;14.60;47.50;;;;;;5032621;28;45472;-62
2023/01/20 07:44:50;;;;;;;10.48;5.35;;;14.70;47.40;;;;;;5052524;28;45237;-61
2023/01/20 07:47:16;;;;;;;9.00;5.10;;;14.90;47.40;;;;;;5051351;28;45103;-60
2023/01/20 07:50:01;;;;;;;6.75;4.22;;;15.10;47.20;;;;;;5036128;28;45123;-61
2023/01/20 07:52:30;;;;;;;7.20;4.07;;;15.20;47.00;;;;;;5038313;28;45644;-61
2023/01/20 07:54:55;;;;;;;6.32;4.32;;;15.40;46.90;;;;;;5058178;28;45713;-62
2023/01/20 07:57:21;;;;;;;5.88;4.30;;;15.60;46.70;;;;;;5030235;28;45830;-61
2023/01/20 07:59:47;;;;;;;7.95;4.15;;;15.80;46.60;;;;;;5054642;28;45608;-61
2023/01/20 08:02:12;;;;;;;5.00;3.63;;;15.90;46.40;;;;;;5042852;28;46437;-62
2023/01/20 08:04:38;;;;;;;5.82;3.60;;;16.00;46.30;;;;;;5050887;28;45645;-62
2023/01/20 08:07:03;;;;;;;5.60;3.80;;;16.20;46.30;;;;;;5070951;27;45563;-63
2023/01/20 08:09:29;;;;;;;5.72;3.70;;;16.20;46.20;;;;;;5034684;28;45469;-60
2023/01/20 08:11:54;;;;;;;5.65;3.33;;;16.30;46.20;;;;;;5046275;28;46308;-61
2023/01/20 08:14:20;;;;;;;4.93;3.33;;;16.40;46.10;;;;;;5049931;28;45239;-61
2023/01/20 08:16:45;;;;;;;6.15;3.65;;;16.50;46.10;;;;;;5052231;28;45309;-61
2023/01/20 08:19:11;;;;;;;6.15;4.05;;;16.50;46.10;;;;;;5051346;28;44872;-62
2023/01/20 08:21:36;;;;;;;5.82;3.45;;;16.50;46.10;;;;;;5049374;28;45238;-61
2023/01/20 08:24:04;;;;;;;4.95;3.13;;;16.50;46.10;;;;;;5037810;28;45253;-62
2023/01/20 08:26:30;;;;;;;5.20;3.53;;;16.60;46.10;;;;;;5047052;28;45612;-63
2023/01/20 08:29:00;;;;;;;4.22;2.90;;;16.80;46.00;;;;;;5032493;28;44714;-62
2023/01/20 08:31:25;;;;;;;5.75;3.40;;;16.90;45.90;;;;;;5035026;28;47636;-62
2023/01/20 08:33:52;;;;;;;5.10;3.60;;;17.10;45.80;;;;;;5046117;28;44968;-61
2023/01/20 08:36:20;;;;;;;7.57;3.22;;;17.20;45.70;;;;;;5056780;27;45288;-60
2023/01/20 08:38:46;;;;;;;5.45;3.38;;;17.40;45.60;;;;;;5054390;27;45209;-62
2023/01/20 08:41:13;;;;;;;4.47;3.00;;;17.50;45.40;;;;;;5054564;28;45359;-62
2023/01/20 08:43:39;;;;;;;5.15;3.08;;;17.60;45.30;;;;;;5062754;27;45180;-61
2023/01/20 08:46:07;;;;;;;7.63;3.03;;;17.70;45.10;;;;;;5059911;28;45477;-62
2023/01/20 08:48:33;;;;;;;4.25;2.53;;;17.80;45.00;;;;;;5049074;28;45415;-62
2023/01/20 08:51:01;;;;;;;4.70;2.95;;;17.90;44.90;;;;;;5053350;28;45487;-62
2023/01/20 08:53:27;;;;;;;4.53;2.60;;;18.00;44.90;;;;;;5035104;28;45372;-61
2023/01/20 08:55:54;;;;;;;6.75;3.25;;;18.10;44.80;;;;;;5050433;28;45670;-61
2023/01/20 08:58:20;;;;;;;3.95;2.33;;;18.20;44.80;;;;;;5053513;27;45231;-61
2023/01/20 09:00:45;;;;;;;3.47;2.47;;;18.20;44.70;;;;;;5046807;28;45562;-62
2023/01/20 09:03:11;;;;;;;6.05;3.10;;;18.10;44.80;;;;;;5042747;28;45557;-63
2023/01/20 09:05:37;;;;;;;4.00;2.70;;;18.20;45.30;;;;;;5033154;28;44837;-62
2023/01/20 09:08:02;;;;;;;4.28;2.60;;;18.20;44.90;;;;;;5063992;28;45480;-61
2023/01/20 09:10:30;;;;;;;5.68;2.40;;;18.30;44.90;;;;;;5046520;28;46605;-62
2023/01/20 09:12:56;;;;;;;3.72;2.45;;;18.40;44.70;;;;;;5043365;28;45068;-62
2023/01/20 09:15:22;;;;;;;3.20;2.30;;;18.60;44.70;;;;;;5047550;28;44786;-62
2023/01/20 09:17:47;;;;;;;4.40;2.60;;;18.70;44.50;;;;;;5059256;28;45317;-61
2023/01/20 09:20:13;;;;;;;6.35;2.65;;;18.80;44.40;;;;;;5048261;28;45441;-62
2023/01/20 09:22:39;;;;;;;3.50;2.15;;;18.90;44.20;;;;;;5048299;27;45198;-62
2023/01/20 09:25:06;;;;;;;3.55;2.58;;;19.00;44.10;;;;;;5066688;27;45138;-62
2023/01/20 09:27:32;;;;;;;3.75;2.40;;;19.10;44.00;;;;;;5061095;28;45165;-61
2023/01/20 09:29:57;;;;;;;4.57;2.10;;;19.20;43.90;;;;;;5047128;28;46033;-62
2023/01/20 09:32:23;;;;;;;2.90;2.20;;;19.30;43.70;;;;;;5038595;28;45083;-62
2023/01/20 09:34:48;;;;;;;3.20;2.30;;;19.40;43.70;;;;;;5047448;28;45215;-62
2023/01/20 09:46:00;;;;;;;2.78;2.05;;;19.50;43.40;;;;;;5054306;28;45321;-62
2023/01/20 09:54:47;;;;;;;2.72;2.08;;;19.60;43.50;;;;;;5038428;28;45390;-62
2023/01/20 09:57:13;;;;;;;2.65;2.03;;;19.70;43.50;;;;;;5034615;28;45380;-61
2023/01/20 09:59:41;;;;;;;3.67;1.63;;;19.90;43.50;;;;;;5041441;28;45523;-61
2023/01/20 10:02:13;;;;;;;3.53;2.20;;;20.00;43.20;;;;;;5048081;28;46690;-62
2023/01/20 10:04:41;;;;;;;3.35;2.00;;;20.10;43.10;;;;;;5032932;28;45297;-62
2023/01/20 10:07:11;;;;;;;3.90;2.20;;;20.20;43.00;;;;;;5060167;28;45202;-62
2023/01/20 10:09:38;;;;;;;4.90;2.00;;;20.30;42.90;;;;;;5056562;28;45316;-62
2023/01/20 10:12:17;;;;;;;3.08;2.00;;;20.40;42.80;;;;;;5046933;28;46316;-61
2023/01/20 10:14:44;;;;;;;3.00;1.80;;;20.50;42.40;;;;;;5037225;28;45294;-61
2023/01/20 10:17:26;;;;;;;2.55;1.83;;;20.60;42.60;;;;;;5048710;27;45598;-62
2023/01/20 10:20:03;;;;;;;2.67;1.85;;;20.60;42.00;;;;;;5040584;28;44965;-61
2023/01/20 10:23:06;;;;;;;2.70;1.83;;;20.70;42.30;;;;;;5048082;28;45603;-61
2023/01/20 10:25:47;;;;;;;2.75;2.08;;;20.70;41.70;;;;;;5046404;28;45558;-61
2023/01/20 10:28:14;;;;;;;3.42;2.40;;;20.60;42.20;;;;;;5036280;28;44920;-61
2023/01/20 10:30:41;;;;;;;3.25;1.77;;;20.60;42.60;;;;;;5035750;28;45577;-61
2023/01/20 10:33:09;;;;;;;4.18;1.70;;;20.70;42.70;;;;;;5054171;28;45464;-62
2023/01/20 10:35:37;;;;;;;2.33;1.80;;;20.70;42.50;;;;;;5053543;28;45178;-61
2023/01/20 10:38:07;;;;;;;3.42;2.08;;;20.80;42.50;;;;;;5036234;28;45547;-62
2023/01/20 10:40:42;;;;;;;2.05;1.60;;;20.90;42.40;;;;;;5048580;28;45291;-62
2023/01/20 10:43:14;;;;;;;2.35;1.85;;;21.00;42.10;;;;;;5048753;28;45935;-62
2023/01/20 10:46:01;;;;;;;3.72;1.92;;;21.10;42.00;;;;;;5025935;28;45429;-63
2023/01/20 10:48:48;;;;;;;1.73;1.45;;;21.20;41.60;;;;;;5052809;28;45429;-61
2023/01/20 10:51:40;;;;;;;2.33;1.58;;;21.30;41.90;;;;;;5062516;27;45469;-61
2023/01/20 10:54:15;;;;;;;2.15;1.55;;;21.40;41.80;;;;;;5047052;28;45851;-62
2023/01/20 10:56:52;;;;;;;2.60;1.88;;;21.50;41.70;;;;;;5057863;28;45552;-60
2023/01/20 10:59:20;;;;;;;2.58;1.83;;;21.60;41.70;;;;;;5036742;28;45239;-62
2023/01/20 11:01:48;;;;;;;2.08;1.60;;;21.70;41.60;;;;;;5047543;28;45471;-61
2023/01/20 11:04:18;;;;;;;2.42;1.63;;;21.80;41.50;;;;;;5024311;28;46874;-62
2023/01/20 11:06:47;;;;;;;2.35;1.65;;;21.80;41.30;;;;;;5018689;28;44981;-62
2023/01/20 11:09:22;;;;;;;2.42;1.83;;;21.80;42.00;;;;;;5042525;28;44963;-62
2023/01/20 11:11:47;;;;;;;2.70;1.85;;;21.80;41.00;;;;;;5046451;28;45221;-62
2023/01/20 11:14:13;;;;;;;2.30;1.60;;;21.70;41.40;;;;;;5054709;28;46852;-62
2023/01/20 11:16:41;;;;;;;1.92;1.65;;;21.70;41.50;;;;;;5062385;28;45260;-61
2023/01/20 11:19:06;;;;;;;2.83;1.75;;;21.70;41.60;;;;;;5054856;28;44670;-62
2023/01/20 11:21:35;;;;;;;2.63;1.90;;;21.70;41.60;;;;;;5039225;28;45163;-62
2023/01/20 11:24:21;;;;;;;2.20;1.77;;;21.80;41.40;;;;;;5019078;28;45751;-62
2023/01/20 11:26:47;;;;;;;2.65;1.60;;;21.80;41.40;;;;;;5050952;28;45187;-62
2023/01/20 11:29:12;;;;;;;2.90;1.63;;;21.90;41.30;;;;;;5056224;27;45192;-62
2023/01/20 11:31:43;;;;;;;2.20;1.75;;;21.90;41.30;;;;;;5060497;28;45224;-62
2023/01/20 11:34:22;;;;;;;2.20;1.58;;;22.00;41.10;;;;;;5038745;28;45553;-62
2023/01/20 11:36:49;;;;;;;2.47;1.67;;;22.10;40.70;;;;;;5056969;28;45831;-62
2023/01/20 11:39:29;;;;;;;2.22;1.77;;;22.10;41.00;;;;;;5041838;28;45083;-61
2023/01/20 11:42:19;;;;;;;2.13;1.42;;;22.20;40.70;;;;;;5055628;28;44794;-62
2023/01/20 11:44:54;;;;;;;2.30;1.60;;;22.30;40.40;;;;;;5051969;28;46505;-62
2023/01/20 11:47:22;;;;;;;1.38;1.20;;;22.30;40.60;;;;;;5057243;28;44960;-62
2023/01/20 11:50:03;;;;;;;1.52;1.33;;;22.30;40.70;;;;;;5056698;28;45137;-62
2023/01/20 11:52:29;;;;;;;2.50;1.42;;;22.40;40.20;;;;;;5053249;28;44818;-61
2023/01/20 11:55:06;;;;;;;2.85;1.50;;;22.40;40.70;;;;;;5034396;28;45391;-62
2023/01/20 11:57:32;;;;;;;2.00;1.60;;;22.50;40.30;;;;;;5054053;28;45416;-62
2023/01/20 11:59:57;;;;;;;2.00;1.63;;;22.50;40.60;;;;;;5057459;28;45479;-62
2023/01/20 12:02:23;;;;;;;2.00;1.60;;;22.60;40.60;;;;;;5049945;28;46002;-61
2023/01/20 12:04:55;;;;;;;2.40;1.83;;;22.50;40.40;;;;;;5040296;28;46141;-61
2023/01/20 12:07:45;;;;;;;1.75;1.30;;;22.40;40.60;;;;;;5053092;28;45175;-62
2023/01/20 12:10:13;;;;;;;2.55;1.75;;;22.40;40.60;;;;;;5056974;28;45099;-62
2023/01/20 12:12:42;;;;;;;1.80;1.27;;;22.40;40.80;;;;;;5052039;28;45278;-63
2023/01/20 12:15:30;;;;;;;1.98;1.50;;;22.40;40.80;;;;;;5036858;28;45591;-62
2023/01/20 12:18:14;;;;;;;2.05;1.70;;;22.50;40.30;;;;;;5050922;28;45462;-63
2023/01/20 12:20:48;;;;;;;2.00;1.42;;;22.60;40.50;;;;;;5059961;28;45051;-63
2023/01/20 12:23:47;;;;;;;1.90;1.33;;;22.60;40.30;;;;;;5041552;28;45002;-63
2023/01/20 12:26:14;;;;;;;1.63;1.27;;;22.70;40.00;;;;;;5053105;28;45393;-63
2023/01/20 12:29:06;;;;;;;2.30;1.73;;;22.80;40.40;;;;;;5057146;28;45110;-63
2023/01/20 12:31:31;;;;;;;1.90;1.33;;;22.80;39.80;;;;;;5027888;28;44864;-62
2023/01/20 12:34:02;;;;;;;1.38;1.13;;;22.90;40.40;;;;;;5045883;28;45665;-63
2023/01/20 12:36:39;;;;;;;1.13;0.98;;;22.90;40.30;;;;;;5055076;28;45334;-63
2023/01/20 12:39:23;;;;;;;1.98;1.33;;;22.90;40.40;;;;;;5037999;28;45624;-63
2023/01/20 12:42:26;;;;;;;1.85;1.35;;;23.00;40.00;;;;;;5056417;28;45222;-66
2023/01/20 12:45:25;;;;;;;1.73;1.20;;;23.00;40.00;;;;;;5057295;28;44651;-63
2023/01/20 12:48:12;;;;;;;1.63;1.10;;;23.00;40.10;;;;;;5031880;28;46989;-62
2023/01/20 12:50:56;;;;;;;1.40;1.20;;;23.10;40.20;;;;;;5057238;27;44751;-63
2023/01/20 12:53:40;;;;;;;1.27;1.17;;;23.10;39.80;;;;;;5056544;28;44600;-63
2023/01/20 12:56:40;;;;;;;1.73;1.38;;;23.20;40.10;;;;;;5049933;28;45280;-63
2023/01/20 12:59:15;;;;;;;1.77;1.30;;;23.20;39.80;;;;;;5045947;28;45180;-63
2023/01/20 13:02:12;;;;;;;1.95;1.30;;;23.20;40.20;;;;;;5056511;28;45249;-62
2023/01/20 13:05:11;;;;;;;1.42;1.20;;;23.20;39.90;;;;;;5055919;28;44789;-63
2023/01/20 13:08:23;;;;;;;2.60;1.20;;;23.30;39.90;;;;;;5055135;28;45252;-62
2023/01/20 13:11:22;;;;;;;1.73;1.10;;;23.30;39.60;;;;;;5041404;28;45532;-63
2023/01/20 13:14:26;;;;;;;2.65;1.20;;;23.20;39.70;;;;;;5052601;28;45212;-62
2023/01/20 13:17:13;;;;;;;2.03;1.30;;;23.10;39.90;;;;;;5057850;28;44708;-63
2023/01/20 13:19:40;;;;;;;1.58;1.40;;;23.00;40.40;;;;;;5056343;28;45342;-63
2023/01/20 13:22:19;;;;;;;1.98;1.40;;;23.10;40.50;;;;;;5058295;28;45400;-64
2023/01/20 13:24:49;;;;;;;1.38;1.20;;;23.10;40.30;;;;;;5053139;28;45443;-63
2023/01/20 13:27:32;;;;;;;3.05;1.20;;;23.20;40.20;;;;;;5038227;28;44715;-63
2023/01/20 13:29:59;;;;;;;3.17;1.10;;;23.30;40.10;;;;;;5074434;27;45343;-63
2023/01/20 13:32:25;;;;;;;1.35;1.20;;;23.30;40.20;;;;;;5043605;28;45233;-62
2023/01/20 13:34:51;;;;;;;2.05;1.15;;;23.30;40.20;;;;;;5060788;28;45329;-63
2023/01/20 13:37:23;;;;;;;1.05;0.93;;;23.40;40.20;;;;;;5040220;28;46685;-63
2023/01/20 13:39:49;;;;;;;1.83;1.20;;;23.40;40.00;;;;;;5055252;28;45825;-63
2023/01/20 13:42:29;;;;;;;3.28;1.10;;;23.40;40.20;;;;;;5054957;28;45275;-63
2023/01/20 13:45:27;;;;;;;1.75;1.10;;;23.50;40.00;;;;;;5049936;28;44924;-61
2023/01/20 13:47:56;;;;;;;2.20;1.10;;;23.50;39.70;;;;;;5021013;28;45404;-63
2023/01/20 13:50:38;;;;;;;1.77;1.27;;;23.50;40.10;;;;;;5052798;28;45294;-63
2023/01/20 13:53:04;;;;;;;1.20;1.02;;;23.60;39.90;;;;;;5039587;28;45494;-64
2023/01/20 13:55:33;;;;;;;1.27;1.08;;;23.60;40.10;;;;;;5053517;28;45226;-63
2023/01/20 13:57:58;;;;;;;1.40;1.20;;;23.60;40.00;;;;;;5043818;28;44889;-63
2023/01/20 14:00:24;;;;;;;1.20;0.98;;;23.70;40.00;;;;;;5057205;28;45466;-63
2023/01/20 14:02:51;;;;;;;1.40;1.20;;;23.70;40.00;;;;;;5057504;28;45666;-63
2023/01/20 14:05:22;;;;;;;2.00;1.10;;;23.70;40.00;;;;;;5062938;27;45474;-63
2023/01/20 14:07:47;;;;;;;1.88;1.27;;;23.80;40.00;;;;;;5067052;28;45097;-63
2023/01/20 14:10:13;;;;;;;1.05;0.90;;;23.80;40.00;;;;;;5057765;28;44892;-64
2023/01/20 14:12:41;;;;;;;1.05;0.73;;;23.80;40.00;;;;;;5057391;28;45201;-64
2023/01/20 14:15:22;;;;;;;1.25;1.05;;;23.80;39.80;;;;;;5055263;28;45011;-62
2023/01/20 14:17:54;;;;;;;2.58;1.10;;;23.80;39.40;;;;;;5060161;28;45315;-63
2023/01/20 14:20:23;;;;;;;1.77;1.17;;;23.70;39.60;;;;;;5019251;28;45448;-64
2023/01/20 14:22:49;;;;;;;1.48;1.13;;;23.70;40.00;;;;;;5027850;28;47761;-63
2023/01/20 14:25:20;;;;;;;0.85;0.77;;;23.60;40.20;;;;;;5051386;28;45363;-63
2023/01/20 14:27:45;;;;;;;1.23;0.90;;;23.60;40.10;;;;;;5047843;28;44869;-64
2023/01/20 14:30:17;;;;;;;1.58;1.05;;;23.60;40.20;;;;;;5051625;28;44848;-63
2023/01/20 14:32:42;;;;;;;1.20;0.98;;;23.70;40.00;;;;;;5030868;28;46856;-64
2023/01/20 14:35:23;;;;;;;3.65;1.08;;;23.70;40.10;;;;;;5032720;28;45218;-64
2023/01/20 14:37:49;;;;;;;2.15;0.95;;;23.70;39.90;;;;;;5051242;28;45399;-63
2023/01/20 14:40:24;;;;;;;1.15;1.05;;;23.80;40.10;;;;;;5036017;28;45309;-63
2023/01/20 14:42:56;;;;;;;1.10;1.00;;;23.80;40.50;;;;;;5019399;28;46125;-63
2023/01/20 14:45:22;;;;;;;1.40;1.30;;;23.90;39.90;;;;;;5050916;28;45417;-63
2023/01/20 14:47:48;;;;;;;0.80;0.80;;;23.90;40.00;;;;;;5033149;28;45385;-64
2023/01/20 14:50:14;;;;;;;1.00;0.90;;;24.00;40.00;;;;;;5050299;28;45444;-63
2023/01/20 14:52:40;;;;;;;3.05;0.90;;;24.00;40.00;;;;;;5049153;28;45420;-62
2023/01/20 14:55:24;;;;;;;1.20;1.00;;;24.00;39.90;;;;;;5046838;28;45638;-65
2023/01/20 14:57:50;;;;;;;1.95;0.90;;;24.00;39.90;;;;;;5020666;28;45510;-65
2023/01/20 15:00:21;;;;;;;1.00;0.85;;;24.00;39.80;;;;;;5044531;28;44797;-64
2023/01/20 15:02:49;;;;;;;1.35;0.95;;;24.10;39.80;;;;;;5047242;28;46693;-65
2023/01/20 15:05:26;;;;;;;1.40;1.10;;;24.10;39.90;;;;;;5044538;28;45299;-65
2023/01/20 15:08:17;;;;;;;1.58;1.10;;;24.10;39.60;;;;;;5029736;28;45498;-64
2023/01/20 15:10:43;;;;;;;1.13;0.77;;;24.00;39.50;;;;;;5047549;28;45197;-65
2023/01/20 15:13:26;;;;;;;1.20;1.08;;;23.80;39.80;;;;;;5050593;28;45691;-65
2023/01/20 15:16:25;;;;;;;2.08;0.80;;;23.70;39.70;;;;;;5016177;28;45321;-65
2023/01/20 15:19:15;;;;;;;1.05;0.90;;;23.50;40.00;;;;;;5046531;28;45015;-65
2023/01/20 15:21:45;;;;;;;1.83;1.00;;;23.30;40.20;;;;;;5050546;28;45336;-65
2023/01/20 15:24:20;;;;;;;0.88;0.77;;;23.10;40.70;;;;;;5033064;28;46921;-65
2023/01/20 15:26:47;;;;;;;0.80;0.80;;;23.00;40.70;;;;;;5051077;28;45603;-65
2023/01/20 15:29:18;;;;;;;0.98;0.88;;;22.90;41.10;;;;;;5048616;28;46639;-65
2023/01/20 15:31:44;;;;;;;1.15;1.05;;;22.80;41.10;;;;;;5049546;28;44711;-65
2023/01/20 15:34:09;;;;;;;1.20;1.10;;;22.70;41.30;;;;;;5050945;28;45559;-64
2023/01/20 15:36:37;;;;;;;1.30;0.90;;;22.60;41.40;;;;;;5050867;28;45612;-64
2023/01/20 15:39:04;;;;;;;0.80;0.80;;;22.50;41.60;;;;;;5049171;28;45372;-64
2023/01/20 15:41:30;;;;;;;1.50;0.98;;;22.40;41.60;;;;;;5033067;28;45554;-64
2023/01/20 15:43:56;;;;;;;1.27;1.02;;;22.30;41.70;;;;;;5051595;28;46636;-64
2023/01/20 15:46:23;;;;;;;1.50;1.17;;;22.20;41.80;;;;;;5052687;28;45173;-64
2023/01/20 15:48:48;;;;;;;2.10;0.95;;;22.10;41.90;;;;;;5050667;28;45624;-64
2023/01/20 15:51:15;;;;;;;1.27;0.90;;;22.10;42.10;;;;;;5032131;28;45170;-64
2023/01/20 15:53:41;;;;;;;1.58;0.90;;;21.90;42.10;;;;;;5033120;28;45290;-64
2023/01/20 15:56:13;;;;;;;1.58;1.40;;;21.90;42.30;;;;;;5026506;28;45201;-64
2023/01/20 15:58:38;;;;;;;1.08;0.98;;;21.80;42.30;;;;;;5051085;28;44981;-64
2023/01/20 16:01:04;;;;;;;1.40;1.10;;;21.70;42.40;;;;;;5045307;28;46458;-64
2023/01/20 16:03:33;;;;;;;1.20;1.08;;;21.60;42.60;;;;;;5044350;28;45944;-64
2023/01/20 16:05:59;;;;;;;1.38;1.00;;;21.50;42.60;;;;;;5035539;28;45527;-64
2023/01/20 16:08:32;;;;;;;1.58;1.30;;;21.50;42.80;;;;;;5051650;28;45499;-64
2023/01/20 16:10:57;;;;;;;1.42;1.17;;;21.40;42.80;;;;;;5050189;28;45347;-64
2023/01/20 16:13:23;;;;;;;0.98;0.90;;;21.30;42.90;;;;;;5048199;28;45521;-64
2023/01/20 16:15:49;;;;;;;1.30;1.00;;;21.30;43.10;;;;;;5049140;28;44979;-64
2023/01/20 16:18:15;;;;;;;1.58;1.00;;;21.20;43.10;;;;;;5053218;28;44975;-64
2023/01/20 16:20:44;;;;;;;1.00;0.90;;;21.10;43.20;;;;;;5031929;28;45497;-65
2023/01/20 16:23:10;;;;;;;1.25;1.08;;;21.00;43.30;;;;;;5046271;28;46529;-64
2023/01/20 16:25:36;;;;;;;1.02;0.82;;;20.90;43.40;;;;;;5048148;28;45305;-65
2023/01/20 16:28:10;;;;;;;1.33;1.20;;;20.90;43.50;;;;;;5028002;28;45750;-64
2023/01/20 16:30:36;;;;;;;1.60;1.05;;;20.80;43.60;;;;;;5044209;28;44987;-63
2023/01/20 16:33:01;;;;;;;2.40;1.10;;;20.70;43.60;;;;;;5047976;28;45453;-64
2023/01/20 16:35:27;;;;;;;1.38;1.20;;;20.70;43.80;;;;;;5047823;28;45206;-64
2023/01/20 16:37:53;;;;;;;2.13;1.05;;;20.60;43.90;;;;;;5046233;28;45223;-64
2023/01/20 16:40:19;;;;;;;1.08;0.98;;;20.50;43.90;;;;;;5043075;28;45156;-64
2023/01/20 16:42:45;;;;;;;1.00;0.90;;;20.40;43.90;;;;;;5035411;28;45426;-64
2023/01/20 16:45:25;;;;;;;1.50;1.00;;;20.40;44.00;;;;;;5030738;28;45363;-64
2023/01/20 16:47:51;;;;;;;2.25;0.90;;;20.30;44.20;;;;;;5045879;28;45694;-64
2023/01/20 16:50:17;;;;;;;2.15;1.13;;;20.30;44.20;;;;;;5037404;28;45390;-64
2023/01/20 16:52:42;;;;;;;1.70;1.10;;;20.20;44.20;;;;;;5036419;28;46533;-64
2023/01/20 16:55:08;;;;;;;1.40;1.10;;;20.10;44.30;;;;;;5051194;28;45609;-64
2023/01/20 16:57:33;;;;;;;1.40;1.00;;;20.10;44.40;;;;;;5049512;28;45534;-64
2023/01/20 16:59:59;;;;;;;1.33;0.98;;;20.00;44.40;;;;;;5050348;28;45445;-64
2023/01/20 17:02:24;;;;;;;1.50;1.02;;;19.90;44.50;;;;;;5052879;28;45432;-64
2023/01/20 17:04:50;;;;;;;1.45;1.10;;;19.90;44.60;;;;;;5041524;28;45711;-63
2023/01/20 17:07:15;;;;;;;2.17;1.00;;;19.80;44.60;;;;;;5027397;28;44890;-63
2023/01/20 17:09:41;;;;;;;1.30;0.93;;;19.80;44.80;;;;;;5050118;28;45461;-63
2023/01/20 17:12:07;;;;;;;1.35;1.15;;;19.70;44.80;;;;;;5051674;28;46589;-63
2023/01/20 17:14:33;;;;;;;1.33;1.20;;;19.70;45.00;;;;;;5052249;28;45189;-64
2023/01/20 17:16:58;;;;;;;1.13;0.80;;;19.60;45.00;;;;;;5056933;28;45274;-63